METAR Data
IDs: Format: Raw Decoded Include TAF

Data at: 0241 UTC 18 Jun 2019

PAUT 180235Z AUTO 31017G22KT 2 1/2SM BR BKN003 OVC007 08/08 A2995 RMK AO2 T00800080
PAUT 180215Z AUTO 31021G26KT 1 3/4SM DZ BKN003 OVC008 08/08 A2994 RMK AO2 T00830082
PAUT 180155Z AUTO 31020KT 3SM DZ SCT003 OVC010 08/08 A2994 RMK AO2 T00810081
PAUT 180135Z AUTO 31021G25KT 1 3/4SM DZ OVC004 08/08 A2994 RMK AO2 T00830082
PAUT 180115Z AUTO 31017G22KT 1 1/2SM DZ OVC004 08/08 A2993 RMK AO2 T00810080
PAUT 180055Z AUTO 30019G25KT 1 3/4SM DZ OVC004 08/08 A2993 RMK AO2 T00820081
PAUT 180035Z AUTO 31016G22KT 2 1/2SM -RA OVC004 08/08 A2993 RMK AO2 T00840082
PAUT 180015Z AUTO 30017G24KT 1 3/4SM -RA OVC004 09/08 A2992 RMK AO2 T00850082
PAUT 172355Z AUTO 31019G26KT 3SM DZ OVC008 09/08 A2992 RMK AO2 T00850082 10086 20075
PAUT 172335Z AUTO 31018G22KT 2 1/2SM -DZ OVC008 09/08 A2992 RMK AO2 T00850082
PAUT 172315Z AUTO 31016G21KT 3SM -DZ OVC008 09/08 A2991 RMK AO2 T00850082
PAUT 172255Z AUTO 30018G21KT 3SM -RA OVC006 08/08 A2991 RMK AO2 T00820081
PAUT 172235Z AUTO 30020G24KT 4SM BR OVC006 08/08 A2991 RMK AO2 T00820081
PAUT 172215Z AUTO 30017G21KT 5SM BR OVC008 08/08 A2991 RMK AO2 T00820081
PAUT 172155Z AUTO 30019KT 7SM OVC010 08/08 A2990 RMK AO2 T00800080
PAUT 172135Z AUTO 30016KT 7SM SCT006 OVC012 08/08 A2989 RMK AO2 T00800078
PAUT 172115Z AUTO 30022KT 5SM BR OVC004 08/08 A2988 RMK AO2 T00780077
PAUT 172055Z AUTO 30018G23KT 1/2SM -DZ OVC002 08/08 A2988 RMK AO2 T00770076
PAUT 172035Z AUTO 30019G23KT 1/4SM FG OVC002 08/08 A2987 RMK AO2 T00770076
PAUT 172015Z AUTO 30017KT M1/4SM FG OVC002 08/08 A2988 RMK AO2 T00760075
PAUT 171955Z AUTO 30013KT M1/4SM FG OVC002 08/08 A2989 RMK AO2 T00770076
PAUT 171935Z AUTO 31014G18KT M1/4SM FG OVC002 08/08 A2988 RMK AO2 T00770076
PAUT 171915Z AUTO 31015KT M1/4SM FG OVC002 08/08 A2988 RMK AO2 T00760075
PAUT 171855Z AUTO 30021G24KT 3/4SM BR OVC002 08/08 A2987 RMK AO2 T00770076
PAUT 171835Z AUTO 30017KT 1/2SM FG OVC002 08/08 A2987 RMK AO2 T00760075
PAUT 171815Z AUTO 30018KT 1/4SM FG OVC002 08/08 A2986 RMK AO2 T00760075
PAUT 171755Z AUTO 30019KT M1/4SM FG OVC002 08/08 A2986 RMK AO2 T00750075 10080 20071
PAUT 171735Z AUTO 31017G23KT 1/2SM FG OVC002 08/07 A2986 RMK AO2 T00750073
PAUT 171715Z AUTO 31013G19KT 1/4SM FG OVC002 08/08 A2986 RMK AO2 T00770076
PAUT 171655Z AUTO 30010KT 1/4SM FG OVC002 08/08 A2986 RMK AO2 T00780077
PAUT 171635Z AUTO 30019G23KT 1SM BR OVC002 08/08 A2984 RMK AO2 T00800077
PAUT 171615Z AUTO 30014KT 10SM OVC002 08/08 A2984 RMK AO2 T00800078
PAUT 171555Z AUTO 29010KT 1/4SM FG OVC002 08/08 A2984 RMK AO2 T00760075
PAUT 171535Z AUTO 31010KT 1/4SM FG OVC002 08/08 A2984 RMK AO2 T00760075
PAUT 171515Z AUTO 30008KT M1/4SM FG OVC002 07/07 A2984 RMK AO2 T00740072
PAUT 171455Z AUTO 30013KT M1/4SM FG OVC002 07/07 A2984 RMK AO2 T00720070
PAUT 171435Z AUTO 29011KT 1/4SM FG OVC002 08/07 A2983 RMK AO2 T00750072
PAUT 171415Z AUTO 32012KT 1SM BR OVC002 08/08 A2982 RMK AO2 T00770075
PAUT 171355Z AUTO 31015KT 2SM BR OVC002 08/07 A2982 RMK AO2 T00770073
PAUT 171335Z AUTO 30015KT 10SM OVC004 08/07 A2981 RMK AO2 T00770073
PAUT 171315Z AUTO 31008KT 10SM OVC004 08/07 A2982 RMK AO2 T00760072
PAUT 171255Z AUTO 30007KT 10SM BKN004 BKN080 08/07 A2982 RMK AO2 T00760072
PAUT 171235Z AUTO 30007KT 10SM BKN004 08/07 A2981 RMK AO2 T00760072
PAUT 171215Z AUTO 29008KT 10SM BKN004 BKN014 OVC075 08/07 A2982 RMK AO2 T00750071
PAUT 171155Z AUTO 28006KT 10SM SCT004 BKN015 OVC085 08/07 A2982 RMK AO2 70001 T00760071 10091 20075
PAUT 171135Z AUTO 32010KT 10SM SCT004 BKN027 OVC085 08/07 A2982 RMK AO2 T00750070
PAUT 171115Z AUTO 29007KT 10SM SCT004 OVC014 08/07 A2981 RMK AO2 T00770070
PAUT 171055Z AUTO 29011KT 10SM OVC014 08/07 A2981 RMK AO2 T00780071
PAUT 171035Z AUTO 31007KT 10SM OVC012 08/07 A2980 RMK AO2 T00800071
PAUT 171015Z AUTO 30009KT 10SM OVC014 08/07 A2980 RMK AO2 T00820073
PAUT 170955Z AUTO 32007KT 10SM OVC012 08/07 A2980 RMK AO2 T00810073
PAUT 170935Z AUTO 31008KT 10SM OVC012 08/07 A2980 RMK AO2 T00810074
PAUT 170915Z AUTO 29009KT 10SM OVC012 08/07 A2979 RMK AO2 T00780071
PAUT 170855Z AUTO 29009KT 10SM SCT006 OVC012 08/07 A2979 RMK AO2 T00800071 401090077
PAUT 170835Z AUTO 29009KT 10SM OVC014 08/07 A2978 RMK AO2 T00810071
PAUT 170815Z AUTO 30008KT 10SM OVC014 08/07 A2978 RMK AO2 T00820071
PAUT 170755Z AUTO 30007KT 10SM BKN012 OVC060 09/07 A2977 RMK AO2 T00870070
PAUT 170735Z AUTO 27003KT 10SM OVC014 09/07 A2977 RMK AO2 T00890072
PAUT 170715Z AUTO 32003KT 10SM SCT014 BKN075 OVC090 09/07 A2976 RMK AO2 T00870072
PAUT 170655Z AUTO 33005KT 10SM SCT050 BKN075 BKN100 09/08 A2975 RMK AO2 T00860075
PAUT 170635Z AUTO 31004KT 10SM OVC050 09/07 A2975 RMK AO2 T00850072
PAUT 170615Z AUTO 34004KT 10SM SCT013 OVC050 09/08 A2974 RMK AO2 T00900075
PAUT 170555Z AUTO 32005KT 10SM SCT013 BKN045 OVC055 09/08 A2974 RMK AO2 T00870075 10109 20085
PAUT 170535Z AUTO 31007KT 10SM SCT013 BKN055 OVC065 09/07 A2973 RMK AO2 T00850074
PAUT 170515Z AUTO 32006KT 10SM BKN013 BKN018 OVC055 09/08 A2973 RMK AO2 T00880076
PAUT 170455Z AUTO 31008KT 10SM BKN013 BKN023 OVC027 09/08 A2972 RMK AO2 T00870075
PAUT 170435Z AUTO 31008KT 10SM SCT015 BKN021 OVC029 09/08 A2972 RMK AO2 T00900077
PAUT 170415Z AUTO 31007KT 10SM SCT017 BKN022 OVC029 09/08 A2971 RMK AO2 T00880077
PAUT 170355Z AUTO 30008KT 10SM BKN017 BKN024 OVC031 09/08 A2971 RMK AO2 T00890077
PAUT 170335Z AUTO 31009KT 10SM BKN017 OVC025 09/08 A2970 RMK AO2 T00900075
PAUT 170315Z AUTO 31005KT 10SM BKN017 OVC025 09/08 A2970 RMK AO2 T00930079
PAUT 170255Z AUTO 32004KT 10SM BKN017 BKN023 OVC028 09/08 A2970 RMK AO2 T00900077
PAUT 170235Z AUTO 30007KT 10SM SCT015 BKN020 OVC025 09/08 A2969 RMK AO2 T00910079
PAUT 170215Z AUTO 30007KT 10SM BKN019 OVC027 09/07 A2969 RMK AO2 T00900074
PAUT 170155Z AUTO 30008KT 10SM SCT019 OVC027 09/07 A2969 RMK AO2 T00900070
PAUT 170135Z AUTO 35007KT 310V020 10SM SCT021 OVC027 11/07 A2968 RMK AO2 T01080069
PAUT 170115Z AUTO 02007KT 10SM BKN020 OVC027 11/07 A2968 RMK AO2 T01090070
PAUT 170055Z AUTO 07004KT 10SM OVC018 10/07 A2968 RMK AO2 T01030065
PAUT 170035Z AUTO 04006KT 10SM BKN018 OVC027 10/08 A2967 RMK AO2 T01000076
PAUT 170015Z AUTO 09005KT 10SM SCT014 SCT020 OVC027 11/07 A2967 RMK AO2 T01050072
PAUT 162355Z AUTO 04005KT 10SM -DZ BKN014 OVC019 10/08 A2966 RMK AO2 T01000078 10107 20077
PAUT 162335Z AUTO 06006KT 10SM OVC014 10/08 A2966 RMK AO2 T01020076
PAUT 162315Z AUTO 36007G18KT 330V040 10SM SCT018 OVC025 11/08 A2966 RMK AO2 T01060075
PAUT 162255Z AUTO 03013KT 10SM SCT017 OVC025 11/07 A2965 RMK AO2 T01050073
PAUT 162235Z AUTO 36008KT 10SM BKN019 OVC029 11/08 A2965 RMK AO2 T01050079
PAUT 162215Z AUTO 30008KT 10SM BKN019 OVC025 09/08 A2964 RMK AO2 T00900077
PAUT 162155Z AUTO 29007KT 10SM SCT013 BKN021 OVC035 09/08 A2964 RMK AO2 T00900076
PAUT 162135Z AUTO 30010KT 10SM SCT018 BKN032 OVC049 09/08 A2964 RMK AO2 T00880076
PAUT 162115Z AUTO 30007KT 10SM SCT028 BKN038 OVC049 09/07 A2964 RMK AO2 T00880074
PAUT 162055Z AUTO 29007KT 10SM SCT014 BKN032 OVC039 10/08 A2964 RMK AO2 T00990082
PAUT 162035Z AUTO 30006KT 10SM BKN016 OVC021 09/08 A2963 RMK AO2 T00930079
PAUT 162015Z AUTO 33003KT 10SM BKN017 OVC029 10/08 A2963 RMK AO2 T00970080
PAUT 161955Z AUTO 32005KT 10SM BKN015 BKN023 OVC028 09/08 A2963 RMK AO2 T00920082
PAUT 161935Z AUTO 30004KT 10SM SCT017 BKN028 OVC038 08/08 A2963 RMK AO2 T00810075
PAUT 161915Z AUTO 30006KT 10SM SCT025 SCT029 OVC038 08/07 A2962 RMK AO2 T00780071
PAUT 161855Z AUTO 30007KT 10SM BKN025 BKN029 OVC041 08/07 A2962 RMK AO2 T00770070
PAUT 161835Z AUTO 30006KT 10SM OVC023 08/07 A2961 RMK AO2 T00780068
PAUT 161815Z AUTO 30004KT 10SM OVC023 08/07 A2961 RMK AO2 T00830070
PAUT 161755Z AUTO 31003KT 10SM OVC023 08/07 A2961 RMK AO2 60001 T00830071 10087 20078
PAUT 161735Z AUTO 36006KT 10SM OVC023 09/07 A2961 RMK AO2 T00850074
PAUT 161715Z AUTO 30005KT 10SM OVC025 08/07 A2960 RMK AO2 T00780069
PAUT 161655Z AUTO 31003KT 10SM OVC029 08/07 A2960 RMK AO2 T00820070
PAUT 161635Z AUTO 01007KT 10SM OVC031 08/07 A2959 RMK AO2 T00830071
PAUT 161615Z AUTO 35005KT 10SM SCT027 OVC031 09/07 A2959 RMK AO2 T00850072
PAUT 161555Z AUTO 08007KT 10SM SCT018 BKN027 OVC031 09/07 A2958 RMK AO2 T00860072
PAUT 161535Z AUTO 08008KT 10SM SCT014 BKN019 OVC024 09/07 A2958 RMK AO2 T00850071
PAUT 161515Z AUTO 07011KT 10SM OVC014 08/07 A2958 RMK AO2 T00840072
PAUT 161455Z AUTO 06008KT 10SM OVC011 08/07 A2958 RMK AO2 60001 T00830071